createdAt,value
2017-08-21T01:42:40.928Z,0.00
2017-08-21T01:42:41.493Z,0.00
2017-08-21T01:42:42.099Z,0.00
2017-08-21T01:42:42.697Z,0.00
2017-08-21T01:42:43.299Z,0.00
2017-08-21T01:42:43.900Z,0.00
2017-08-21T01:42:44.498Z,0.00
2017-08-21T01:42:45.101Z,0.00
2017-08-21T01:42:45.694Z,0.00
2017-08-21T01:42:46.292Z,0.00
2017-08-21T01:42:46.890Z,0.00
2017-08-21T01:42:47.491Z,0.00
2017-08-21T01:45:32.700Z,0.00
2017-08-21T01:45:33.209Z,0.00
2017-08-21T01:45:33.808Z,0.00
2017-08-21T01:45:34.410Z,0.00
2017-08-21T01:45:35.005Z,0.00
2017-08-21T01:45:35.615Z,0.00
2017-08-21T01:45:36.208Z,0.00
2017-08-21T01:45:36.813Z,0.00
2017-08-21T01:45:37.409Z,0.00
2017-08-21T01:45:38.011Z,0.00
2017-08-21T01:45:38.607Z,0.00
2017-08-21T01:49:29.961Z,0.00
2017-08-21T01:49:30.472Z,0.00
2017-08-21T01:49:31.075Z,0.00
2017-08-21T01:53:05.782Z,0.00
2017-08-21T01:53:06.292Z,0.00
2017-08-21T01:53:06.891Z,0.00
2017-08-21T01:53:07.491Z,0.00
2017-08-21T01:53:08.095Z,0.00
2017-08-21T01:53:08.696Z,0.00
2017-08-21T01:53:09.289Z,0.00
2017-08-21T01:53:09.886Z,0.00
2017-08-21T01:53:10.487Z,0.00
2017-08-21T01:53:11.090Z,0.00
2017-08-21T01:53:11.694Z,0.00
2017-08-21T01:56:24.049Z,0.00
2017-08-21T01:56:24.613Z,0.00
2017-08-21T01:56:25.213Z,0.00
2017-08-21T01:56:25.833Z,0.00
2017-08-21T01:56:26.417Z,0.00
2017-08-21T01:56:27.015Z,0.00
2017-08-21T01:56:27.622Z,0.00
2017-08-21T01:56:28.212Z,0.00
2017-08-21T01:56:28.808Z,0.00
2017-08-21T01:56:29.411Z,0.00
2017-08-21T01:56:30.008Z,0.00
2017-08-21T01:56:30.610Z,0.00
2017-08-21T01:57:24.718Z,0.00
2017-08-21T01:57:25.310Z,0.00
2017-08-21T01:57:25.916Z,0.00
2017-08-21T01:57:26.512Z,0.00
2017-08-21T01:57:27.108Z,0.00
2017-08-21T01:57:27.709Z,0.00
2017-08-21T01:57:28.304Z,0.00
2017-08-21T01:57:28.915Z,0.00
2017-08-21T01:58:22.370Z,0.00
2017-08-21T01:58:22.960Z,0.00
2017-08-21T01:58:23.565Z,0.00
2017-08-21T01:58:24.158Z,0.00
2017-08-21T01:58:24.763Z,0.00
2017-08-21T01:58:25.361Z,0.00
2017-08-21T01:58:25.957Z,0.00
2017-08-21T01:58:26.561Z,0.00
2017-08-21T02:02:06.409Z,0.00
2017-08-21T02:02:06.916Z,0.00
2017-08-21T02:02:07.518Z,0.00
2017-08-21T02:02:08.112Z,0.00
2017-08-21T02:02:08.719Z,0.00
2017-08-21T02:02:09.324Z,0.00
2017-08-21T02:06:00.231Z,0.00
2017-08-21T02:06:00.795Z,0.00
2017-08-21T02:06:01.399Z,0.00
2017-08-21T02:06:01.992Z,0.00
2017-08-21T02:06:02.597Z,0.00
2017-08-21T02:06:03.191Z,0.00
2017-08-21T02:06:03.796Z,0.00
2017-08-21T02:07:39.327Z,0.00
2017-08-21T02:07:39.917Z,0.00
2017-08-21T02:07:40.519Z,0.00
2017-08-21T02:07:41.119Z,0.00
2017-08-21T02:07:41.716Z,0.00
2017-08-21T02:08:48.339Z,0.00
2017-08-21T02:08:48.938Z,0.00
2017-08-21T02:08:49.537Z,0.00
2017-08-21T02:08:50.135Z,0.00
2017-08-21T02:08:50.735Z,0.00
2017-08-21T02:56:47.774Z,0.00
2017-08-21T02:56:48.343Z,0.00
2017-08-21T02:56:48.945Z,0.00
2017-08-21T02:56:49.543Z,0.00
2017-08-21T02:56:50.146Z,0.00
2017-08-21T02:56:50.747Z,0.00
2017-08-21T02:56:51.340Z,0.00
2017-08-21T02:59:23.667Z,0.00
2017-08-21T02:59:24.238Z,0.00
2017-08-21T02:59:24.836Z,0.00
2017-08-21T02:59:25.438Z,0.00
2017-08-21T02:59:26.036Z,0.00
2017-08-21T02:59:26.643Z,0.00
2017-08-21T02:59:27.243Z,0.00
2017-08-21T02:59:27.834Z,0.00
2017-08-21T02:59:28.438Z,0.00
2017-08-21T02:59:29.036Z,0.00
2017-08-21T03:01:37.333Z,0.00
2017-08-21T04:08:01.701Z,11.25
2017-08-21T04:08:02.212Z,11.25
2017-08-21T04:08:02.811Z,11.25
2017-08-21T04:08:03.411Z,11.25
2017-08-21T04:08:04.008Z,11.25
2017-08-21T04:08:04.609Z,11.25
2017-08-21T04:08:05.205Z,11.25
2017-08-21T04:08:05.804Z,11.25
2017-08-21T04:08:06.405Z,11.25
2017-08-21T04:08:07.011Z,11.25
2017-08-21T04:08:07.612Z,11.25
2017-08-21T04:08:08.207Z,11.25
2017-08-21T04:08:08.809Z,11.25
2017-08-21T04:08:09.408Z,11.25
2017-08-21T04:09:04.449Z,16.88
2017-08-21T04:09:05.010Z,16.88
2017-08-21T04:09:05.615Z,16.88
2017-08-21T04:09:06.217Z,16.88
2017-08-21T04:09:06.813Z,16.88
2017-08-21T04:09:07.416Z,16.88
2017-08-21T04:10:33.511Z,16.88
2017-08-21T04:10:34.110Z,16.88
2017-08-21T04:10:34.709Z,16.88
2017-08-21T04:10:35.310Z,16.88
2017-08-21T04:10:35.906Z,16.88
2017-08-21T04:12:48.703Z,22.50
2017-08-21T04:12:49.291Z,22.50
2017-08-21T04:12:49.899Z,22.50
2017-08-21T04:12:50.492Z,22.50
2017-08-21T04:12:51.090Z,22.50
2017-08-21T04:12:51.697Z,22.50
2017-08-21T04:12:52.292Z,22.50
2017-08-21T04:12:52.893Z,22.50
2017-08-21T04:12:53.489Z,22.50
2017-08-21T04:12:54.097Z,22.50
2017-08-21T04:12:54.693Z,22.50
2017-08-21T04:12:55.288Z,22.50
2017-08-21T04:13:50.830Z,22.50
2017-08-21T04:13:51.433Z,22.50
2017-08-21T04:13:52.025Z,22.50
2017-08-21T04:13:52.632Z,22.50
2017-08-21T04:13:53.237Z,22.50
2017-08-21T04:13:53.830Z,22.50
2017-08-21T04:14:50.357Z,22.50
2017-08-21T04:14:50.927Z,22.50
2017-08-21T04:14:51.521Z,22.50
2017-08-21T04:14:52.126Z,22.50
2017-08-21T04:14:52.731Z,22.50
2017-08-21T04:14:53.322Z,22.50
2017-08-21T04:16:08.872Z,28.13
2017-08-21T04:16:09.464Z,28.13
2017-08-21T04:16:10.062Z,28.13
2017-08-21T04:16:10.665Z,28.13
2017-08-21T04:16:11.281Z,28.13
2017-08-21T04:16:11.867Z,28.13
2017-08-21T04:17:05.909Z,28.13
2017-08-21T04:17:06.512Z,28.13
2017-08-21T04:17:07.104Z,28.13
2017-08-21T04:17:07.705Z,28.13
2017-08-21T04:17:08.301Z,28.13
2017-08-21T04:17:08.905Z,28.13
2017-08-21T04:17:09.500Z,28.13
2017-08-21T04:17:10.105Z,28.13
2017-08-21T04:19:22.398Z,33.75
2017-08-21T04:19:22.992Z,33.75
2017-08-21T04:19:23.592Z,33.75
2017-08-21T04:19:24.194Z,33.75
2017-08-21T04:19:24.789Z,33.75
2017-08-21T04:19:25.390Z,33.75
2017-08-21T04:19:26.020Z,33.75
2017-08-21T04:19:26.589Z,33.75
2017-08-21T04:19:27.190Z,33.75
2017-08-21T04:19:27.792Z,33.75
2017-08-21T04:20:21.826Z,33.75
2017-08-21T04:20:22.394Z,33.75
2017-08-21T04:20:22.991Z,33.75
2017-08-21T04:20:23.606Z,33.75
2017-08-21T04:20:24.199Z,33.75
2017-08-21T04:20:24.799Z,33.75
2017-08-21T04:20:25.394Z,33.75
2017-08-21T04:21:18.939Z,39.38
2017-08-21T04:21:19.536Z,39.38
2017-08-21T04:21:20.145Z,39.38
2017-08-21T04:21:20.742Z,39.38
2017-08-21T04:21:21.334Z,39.38
2017-08-21T04:21:21.941Z,39.38
2017-08-21T04:21:22.537Z,39.38
2017-08-21T04:21:23.134Z,39.38
2017-08-21T04:22:24.166Z,39.38
2017-08-21T04:22:24.764Z,39.38
2017-08-21T04:22:25.369Z,39.38
2017-08-21T04:22:25.968Z,39.38
2017-08-21T04:22:26.564Z,39.38
2017-08-21T04:22:27.162Z,39.38
2017-08-21T04:22:27.762Z,39.38
2017-08-21T04:22:28.364Z,39.38
2017-08-21T04:22:28.959Z,39.38
2017-08-21T04:22:29.559Z,39.38
2017-08-21T04:22:30.168Z,39.38
2017-08-21T04:22:30.759Z,39.38
2017-08-21T04:23:24.283Z,39.38
2017-08-21T04:23:24.878Z,39.38
2017-08-21T04:23:25.483Z,39.38
2017-08-21T04:23:26.074Z,39.38
2017-08-21T04:23:26.675Z,39.38
2017-08-21T04:23:27.274Z,39.38
2017-08-21T04:23:27.877Z,45.00
2017-08-21T04:23:28.474Z,45.00
2017-08-21T04:24:53.983Z,45.00
2017-08-21T04:24:54.579Z,45.00
2017-08-21T04:24:55.178Z,45.00
2017-08-21T04:24:55.781Z,45.00
2017-08-21T04:24:56.380Z,45.00
2017-08-21T04:26:10.391Z,50.63
2017-08-21T04:26:10.969Z,50.63
2017-08-21T04:26:11.569Z,50.63
2017-08-21T04:26:12.167Z,50.63
2017-08-21T04:26:12.772Z,50.63
2017-08-21T04:26:13.368Z,50.63
2017-08-21T04:26:13.970Z,50.63
2017-08-21T04:27:25.024Z,56.25
2017-08-21T04:27:25.620Z,56.25
2017-08-21T04:27:26.214Z,56.25
2017-08-21T04:27:26.819Z,56.25
2017-08-21T04:27:27.417Z,56.25
2017-08-21T04:27:28.019Z,56.25
2017-08-21T04:27:28.621Z,56.25
2017-08-21T04:27:29.214Z,56.25
2017-08-21T04:27:29.820Z,56.25
2017-08-21T04:27:30.414Z,56.25
2017-08-21T04:27:31.018Z,56.25
2017-08-21T04:27:31.617Z,56.25
2017-08-21T04:28:47.660Z,61.88
2017-08-21T04:28:48.256Z,61.88
2017-08-21T04:28:48.860Z,61.88
2017-08-21T04:28:49.455Z,61.88
2017-08-21T04:29:43.468Z,67.50
2017-08-21T04:29:44.070Z,67.50
2017-08-21T04:29:44.667Z,67.50
2017-08-21T04:29:45.264Z,67.50
2017-08-21T04:29:45.865Z,67.50
2017-08-21T04:29:46.465Z,67.50
2017-08-21T04:29:47.060Z,67.50
2017-08-21T04:30:42.078Z,73.13
2017-08-21T04:30:42.638Z,73.13
2017-08-21T04:30:43.238Z,73.13
2017-08-21T04:30:43.838Z,73.13
2017-08-21T04:30:44.438Z,73.13
2017-08-21T04:30:45.039Z,73.13
2017-08-21T04:32:29.561Z,78.75
2017-08-21T04:32:30.160Z,78.75
2017-08-21T04:32:30.764Z,78.75
2017-08-21T04:32:31.359Z,78.75
2017-08-21T04:32:31.956Z,78.75
2017-08-21T04:32:32.563Z,78.75
2017-08-21T04:32:33.158Z,78.75
2017-08-21T04:33:27.113Z,78.75
2017-08-21T04:33:27.709Z,78.75
2017-08-21T04:33:28.304Z,78.75
2017-08-21T04:33:28.906Z,78.75
2017-08-21T04:33:29.519Z,78.75
2017-08-21T04:33:30.106Z,78.75
2017-08-21T04:33:30.705Z,78.75
2017-08-21T04:35:33.271Z,90.00
2017-08-21T04:35:33.784Z,90.00
2017-08-21T04:35:34.381Z,90.00
2017-08-21T04:35:34.985Z,90.00
2017-08-21T04:35:35.582Z,90.00
2017-08-21T04:35:36.179Z,90.00
2017-08-21T04:35:36.776Z,90.00
2017-08-21T04:35:37.378Z,90.00
2017-08-21T04:35:37.974Z,90.00
2017-08-21T04:35:38.591Z,90.00
2017-08-21T04:35:39.176Z,90.00
2017-08-21T04:37:00.232Z,95.63
2017-08-21T04:37:00.809Z,95.63
2017-08-21T04:37:01.410Z,95.63
2017-08-21T04:37:02.009Z,95.63
2017-08-21T04:37:02.609Z,95.63
2017-08-21T04:37:03.213Z,95.63
2017-08-21T04:37:03.806Z,95.63
2017-08-21T04:37:04.408Z,95.63
2017-08-21T04:37:05.006Z,95.63
2017-08-21T04:37:05.605Z,95.63
2017-08-21T04:37:06.206Z,95.63
2017-08-21T04:37:06.806Z,95.63
2017-08-21T04:38:05.849Z,101.25
2017-08-21T04:38:06.446Z,101.25
2017-08-21T04:38:07.050Z,101.25
2017-08-21T04:38:07.647Z,101.25
2017-08-21T04:38:08.240Z,101.25
2017-08-21T04:38:08.855Z,101.25
2017-08-21T04:39:03.804Z,101.25
2017-08-21T04:39:04.407Z,101.25
2017-08-21T04:39:04.998Z,101.25
2017-08-21T04:39:05.605Z,101.25
2017-08-21T04:39:06.206Z,101.25
2017-08-21T04:39:06.802Z,101.25
2017-08-21T04:39:07.398Z,101.25
2017-08-21T04:39:08.003Z,106.88
2017-08-21T04:40:01.968Z,106.88
2017-08-21T04:40:02.567Z,106.88
2017-08-21T04:40:03.170Z,106.88
2017-08-21T04:40:03.770Z,106.88
2017-08-21T04:40:05.033Z,106.88
2017-08-21T04:40:05.546Z,106.88
2017-08-21T04:41:00.573Z,112.50
2017-08-21T04:41:01.141Z,112.50
2017-08-21T04:41:01.740Z,112.50
2017-08-21T04:41:02.338Z,112.50
2017-08-21T04:41:02.938Z,112.50
2017-08-21T04:41:03.537Z,112.50
2017-08-21T04:41:58.505Z,118.13
2017-08-21T04:41:59.099Z,118.13
2017-08-21T04:41:59.694Z,118.13
2017-08-21T04:42:00.298Z,118.13
2017-08-21T04:42:00.897Z,118.13
2017-08-21T04:42:01.498Z,118.13
2017-08-21T04:42:02.094Z,118.13
2017-08-21T04:42:02.695Z,118.13
2017-08-21T04:42:56.663Z,123.75
2017-08-21T04:42:57.267Z,123.75
2017-08-21T04:42:57.861Z,123.75
2017-08-21T04:42:58.465Z,123.75
2017-08-21T04:42:59.061Z,123.75
2017-08-21T04:42:59.663Z,123.75
2017-08-21T04:43:00.264Z,123.75
2017-08-21T04:43:56.772Z,129.38
2017-08-21T04:43:57.368Z,129.38
2017-08-21T04:43:57.975Z,129.38
2017-08-21T04:45:45.679Z,140.63
2017-08-21T04:45:46.184Z,140.63
2017-08-21T04:45:46.721Z,140.63
2017-08-21T04:45:47.319Z,140.63
2017-08-21T04:45:47.920Z,140.63
2017-08-21T04:45:48.524Z,140.63
2017-08-21T04:45:49.124Z,140.63
2017-08-21T04:45:49.725Z,140.63
2017-08-21T04:45:50.319Z,140.63
2017-08-21T04:45:50.920Z,140.63
2017-08-21T04:45:51.517Z,140.63
2017-08-21T04:45:52.123Z,140.63
2017-08-21T04:45:52.721Z,140.63
2017-08-21T04:45:53.326Z,140.63
2017-08-21T04:45:53.920Z,140.63
2017-08-21T04:45:54.520Z,140.63
2017-08-21T04:45:55.115Z,140.63
2017-08-21T04:45:55.725Z,140.63
2017-08-21T04:46:59.793Z,146.25
2017-08-21T04:47:00.363Z,146.25
2017-08-21T04:47:00.965Z,146.25
2017-08-21T04:47:01.560Z,146.25
2017-08-21T04:47:02.174Z,146.25
2017-08-21T04:47:02.765Z,146.25
2017-08-21T04:47:03.360Z,146.25
2017-08-21T05:11:11.787Z,303.75
2017-08-21T05:11:12.288Z,303.75
2017-08-21T05:11:12.870Z,303.75
2017-08-21T05:11:13.475Z,303.75
2017-08-21T05:11:14.072Z,303.75
2017-08-21T05:11:14.668Z,303.75
2017-08-21T05:11:15.269Z,303.75
2017-08-21T05:11:15.877Z,303.75
2017-08-21T05:14:00.514Z,320.63
2017-08-21T05:14:01.033Z,320.63
2017-08-21T05:14:01.631Z,320.63
2017-08-21T05:14:02.227Z,320.63
2017-08-21T05:14:02.825Z,320.63
2017-08-21T05:14:03.425Z,320.63
2017-08-21T05:14:04.032Z,326.25
2017-08-21T05:14:04.625Z,331.88
2017-08-21T05:14:05.223Z,326.25
2017-08-21T05:14:06.541Z,326.25
2017-08-21T05:15:00.802Z,331.88
2017-08-21T05:15:01.371Z,331.88
2017-08-21T05:15:02.027Z,331.88
2017-08-21T05:15:02.685Z,331.88
2017-08-21T05:15:03.171Z,331.88
2017-08-21T05:15:03.792Z,331.88
2017-08-21T05:15:04.376Z,331.88
2017-08-21T05:16:18.454Z,337.50
2017-08-21T05:16:18.992Z,337.50
2017-08-21T05:16:19.595Z,337.50
2017-08-21T05:16:20.189Z,337.50
2017-08-21T05:16:20.795Z,337.50
2017-08-21T05:16:21.399Z,337.50
2017-08-21T05:16:21.996Z,337.50
2017-08-21T05:17:15.536Z,343.13
2017-08-21T05:17:16.134Z,343.13
2017-08-21T05:17:16.739Z,343.13
2017-08-21T05:17:17.342Z,343.13
2017-08-21T05:17:17.928Z,348.75
2017-08-21T05:17:18.534Z,343.13
2017-08-21T05:17:19.132Z,343.13
2017-08-21T05:17:19.729Z,343.13
2017-08-21T05:18:27.321Z,348.75
2017-08-21T05:18:27.934Z,348.75
2017-08-21T05:18:28.510Z,348.75
2017-08-21T05:19:23.545Z,337.50
2017-08-21T05:19:24.152Z,337.50
2017-08-21T05:19:24.740Z,337.50
2017-08-21T05:19:25.341Z,337.50
2017-08-21T05:19:25.932Z,337.50
2017-08-21T05:19:26.530Z,337.50
2017-08-21T05:20:21.496Z,343.13
2017-08-21T05:20:22.095Z,343.13
2017-08-21T05:20:22.689Z,343.13
2017-08-21T05:20:23.290Z,343.13
2017-08-21T05:20:23.890Z,343.13
2017-08-21T05:20:24.488Z,343.13
2017-08-21T05:20:25.090Z,343.13
2017-08-21T05:20:25.690Z,343.13
2017-08-21T05:21:22.251Z,348.75
2017-08-21T05:21:22.811Z,348.75
2017-08-21T05:21:23.410Z,348.75
2017-08-21T05:22:19.868Z,354.38
2017-08-21T05:22:20.463Z,354.38
2017-08-21T05:22:21.070Z,354.38
2017-08-21T05:23:14.551Z,360.00
2017-08-21T05:23:15.151Z,360.00
2017-08-21T05:23:15.743Z,360.00
2017-08-21T05:23:16.352Z,360.00
2017-08-21T05:23:16.946Z,360.00
2017-08-21T05:23:17.546Z,360.00
2017-08-21T05:23:18.143Z,360.00
2017-08-21T05:23:18.746Z,360.00
2017-08-21T05:24:24.287Z,365.63
2017-08-21T05:24:24.883Z,365.63
2017-08-21T05:24:25.488Z,365.63
2017-08-21T05:24:26.080Z,365.63
2017-08-21T05:24:26.692Z,365.63
2017-08-21T05:24:27.283Z,365.63
2017-08-21T05:25:21.226Z,371.25
2017-08-21T05:25:21.818Z,371.25
2017-08-21T05:25:22.418Z,371.25
2017-08-21T05:25:23.018Z,371.25
2017-08-21T05:25:23.621Z,371.25
2017-08-21T05:25:24.213Z,371.25
2017-08-21T05:25:24.818Z,371.25
2017-08-21T05:26:45.835Z,382.50
2017-08-21T05:26:46.405Z,382.50
2017-08-21T05:26:47.004Z,382.50
2017-08-21T05:26:47.597Z,382.50
2017-08-21T05:26:48.196Z,382.50
2017-08-21T05:26:48.802Z,388.13
2017-08-21T05:26:49.405Z,388.13
2017-08-21T05:26:50.004Z,382.50
2017-08-21T05:26:50.603Z,382.50
2017-08-21T05:26:51.196Z,382.50
2017-08-21T05:26:51.795Z,382.50
2017-08-21T05:26:52.402Z,382.50
2017-08-21T05:27:50.937Z,388.13
2017-08-21T05:27:51.524Z,388.13
2017-08-21T05:27:52.132Z,388.13
2017-08-21T05:27:52.729Z,388.13
2017-08-21T05:27:53.332Z,388.13
2017-08-21T05:27:53.932Z,388.13
2017-08-21T05:27:54.531Z,388.13
2017-08-21T05:27:55.131Z,388.13
2017-08-21T05:27:55.729Z,388.13
2017-08-21T05:27:56.329Z,388.13
2017-08-21T05:27:56.928Z,388.13
2017-08-21T05:27:57.532Z,388.13
2017-08-21T05:27:58.134Z,388.13
2017-08-21T05:27:58.728Z,388.13
2017-08-21T05:27:59.327Z,388.13
2017-08-21T05:27:59.927Z,388.13
2017-08-21T05:29:14.002Z,393.75
2017-08-21T05:29:14.576Z,393.75
2017-08-21T05:29:15.178Z,393.75
2017-08-21T05:29:15.776Z,393.75
2017-08-21T05:29:16.374Z,393.75
2017-08-21T05:29:16.972Z,393.75
2017-08-21T05:29:17.571Z,393.75
2017-08-21T05:30:12.560Z,399.38
2017-08-21T05:30:13.158Z,399.38
2017-08-21T05:30:13.751Z,399.38
2017-08-21T05:30:14.349Z,399.38
2017-08-21T05:30:14.948Z,399.38
2017-08-21T05:30:15.553Z,399.38
2017-08-21T05:31:09.605Z,405.00
2017-08-21T05:31:10.188Z,405.00
2017-08-21T05:31:10.789Z,405.00
2017-08-21T05:31:11.389Z,405.00
2017-08-21T05:31:11.985Z,405.00
2017-08-21T05:31:12.586Z,405.00
2017-08-21T05:31:13.196Z,405.00
2017-08-21T05:31:13.790Z,405.00
2017-08-21T05:32:10.349Z,410.63
2017-08-21T05:32:10.909Z,410.63
2017-08-21T05:32:11.510Z,410.63
2017-08-21T05:33:16.578Z,416.25
2017-08-21T05:33:17.159Z,416.25
2017-08-21T05:33:17.767Z,416.25
2017-08-21T05:33:18.388Z,416.25
2017-08-21T05:33:18.960Z,416.25
2017-08-21T05:33:19.564Z,416.25
2017-08-21T05:34:17.603Z,421.88
2017-08-21T05:34:18.194Z,421.88
2017-08-21T05:34:18.796Z,421.88
2017-08-21T05:35:13.815Z,421.88
2017-08-21T05:35:14.413Z,421.88
2017-08-21T05:35:15.008Z,421.88
2017-08-21T05:35:15.627Z,427.50
2017-08-21T05:35:16.216Z,421.88
2017-08-21T05:35:16.813Z,421.88
2017-08-21T05:38:59.700Z,444.38
2017-08-21T05:39:00.272Z,444.38
2017-08-21T05:39:00.890Z,444.38
2017-08-21T05:39:01.468Z,444.38
2017-08-21T05:39:02.067Z,444.38
2017-08-21T05:39:02.695Z,444.38
2017-08-21T05:39:03.270Z,444.38
2017-08-21T05:39:03.861Z,444.38
2017-08-21T05:39:04.463Z,444.38
2017-08-21T05:39:05.073Z,444.38
2017-08-21T05:39:05.664Z,444.38
2017-08-21T05:39:06.274Z,444.38
2017-08-21T05:41:39.382Z,450.00
2017-08-21T05:41:39.888Z,450.00
2017-08-21T05:41:40.478Z,450.00
2017-08-21T05:41:41.117Z,450.00
2017-08-21T05:41:41.680Z,450.00
2017-08-21T05:41:42.281Z,450.00
2017-08-21T05:41:42.881Z,450.00
2017-08-21T05:41:43.484Z,450.00
2017-08-21T05:41:44.082Z,450.00
2017-08-21T05:41:44.681Z,450.00
2017-08-21T05:41:45.283Z,450.00
2017-08-21T05:41:45.884Z,450.00
2017-08-21T05:41:46.485Z,450.00
2017-08-21T06:05:27.667Z,506.25
2017-08-21T06:05:28.234Z,506.25
2017-08-21T06:05:28.837Z,506.25
2017-08-21T06:05:29.434Z,506.25
2017-08-21T06:05:30.036Z,506.25
2017-08-21T06:40:16.796Z,601.88
2017-08-21T06:40:17.354Z,601.88
2017-08-21T06:40:17.952Z,601.88
2017-08-21T06:40:18.549Z,601.88
2017-08-21T06:40:19.184Z,601.88
2017-08-21T06:40:19.746Z,601.88
2017-08-21T06:40:20.353Z,601.88
2017-08-21T06:40:20.946Z,601.88
2017-08-21T06:40:21.553Z,601.88
2017-08-21T06:40:22.149Z,601.88
2017-08-21T06:40:22.750Z,607.50
2017-08-21T06:40:23.351Z,601.88
2017-08-21T06:41:17.443Z,624.38
2017-08-21T06:41:18.045Z,624.38
2017-08-21T06:41:18.639Z,624.38
2017-08-21T06:41:19.242Z,624.38
2017-08-21T06:41:19.857Z,624.38
2017-08-21T06:41:20.940Z,624.38
2017-08-21T06:41:21.453Z,635.63
2017-08-21T06:42:15.413Z,663.75
2017-08-21T06:42:15.999Z,663.75
2017-08-21T06:42:16.596Z,669.38
2017-08-21T06:42:17.201Z,663.75
2017-08-21T06:42:17.800Z,669.38
2017-08-21T06:42:18.395Z,669.38
2017-08-21T06:42:19.021Z,675.00
2017-08-21T07:07:04.447Z,770.63
2017-08-21T07:07:05.002Z,770.63
2017-08-21T07:07:05.604Z,776.25
2017-08-21T07:07:59.604Z,810.00
2017-08-21T07:08:00.199Z,810.00
2017-08-21T07:08:00.795Z,815.63
2017-08-21T07:08:01.400Z,810.00
2017-08-21T07:08:02.000Z,810.00
2017-08-21T07:08:02.596Z,810.00
2017-08-21T07:08:03.202Z,815.63
2017-08-21T07:08:59.717Z,855.00
2017-08-21T07:09:00.309Z,855.00
2017-08-21T07:09:00.922Z,855.00
2017-08-21T07:09:54.428Z,866.25
2017-08-21T07:09:54.995Z,877.50
2017-08-21T07:09:55.596Z,888.75
2017-08-21T07:09:56.193Z,888.75
2017-08-21T07:09:56.796Z,888.75
2017-08-21T07:09:57.389Z,888.75
2017-08-21T07:09:57.987Z,888.75
2017-08-21T07:09:58.591Z,888.75
2017-08-21T07:10:52.050Z,911.25
2017-08-21T07:10:52.644Z,911.25
2017-08-21T07:10:53.251Z,911.25
2017-08-21T07:10:53.846Z,916.88
2017-08-21T07:10:54.454Z,916.88
2017-08-21T07:10:55.050Z,911.25
2017-08-21T07:10:55.648Z,911.25
2017-08-21T07:10:56.248Z,911.25
2017-08-21T07:13:28.564Z,855.00
2017-08-21T07:13:29.156Z,855.00
2017-08-21T07:13:29.751Z,849.38
2017-08-21T07:13:30.353Z,849.38
2017-08-21T07:13:30.956Z,849.38
2017-08-21T07:13:31.553Z,849.38
2017-08-21T07:13:32.154Z,849.38
2017-08-21T07:13:32.749Z,855.00
2017-08-21T07:13:33.351Z,849.38
2017-08-21T07:13:33.950Z,855.00
2017-08-21T07:13:34.552Z,849.38
2017-08-21T07:13:35.149Z,855.00
2017-08-21T07:15:20.259Z,793.13
2017-08-21T07:15:20.830Z,793.13
2017-08-21T07:15:21.432Z,793.13
2017-08-21T07:15:22.035Z,793.13
2017-08-21T07:15:22.636Z,793.13
2017-08-21T07:15:23.236Z,793.13
2017-08-21T07:18:01.544Z,765.00
2017-08-21T08:10:53.042Z,781.88
2017-08-21T08:10:53.565Z,781.88
2017-08-21T08:10:54.171Z,781.88
2017-08-21T08:10:54.765Z,781.88
2017-08-21T08:10:55.369Z,787.50
2017-08-21T08:10:55.974Z,781.88
2017-08-21T08:10:56.570Z,781.88
2017-08-21T08:10:57.163Z,781.88
2017-08-21T08:11:53.186Z,787.50
2017-08-21T08:11:53.781Z,787.50
2017-08-21T08:11:54.381Z,793.13
2017-08-21T08:11:54.984Z,793.13
2017-08-21T08:11:55.586Z,787.50
2017-08-21T08:11:56.182Z,793.13
2017-08-21T08:12:51.247Z,815.63
2017-08-21T08:12:51.846Z,815.63
2017-08-21T08:12:52.445Z,815.63
2017-08-21T08:12:53.052Z,815.63
2017-08-21T08:12:53.682Z,815.63
2017-08-21T08:12:54.248Z,815.63
2017-08-21T08:12:54.841Z,815.63
2017-08-21T08:12:55.444Z,815.63
2017-08-21T08:13:50.435Z,843.75
2017-08-21T08:13:51.029Z,843.75
2017-08-21T08:13:51.626Z,843.75
2017-08-21T08:13:52.231Z,843.75
2017-08-21T08:13:52.826Z,849.38
2017-08-21T08:13:53.427Z,849.38
2017-08-21T08:13:54.033Z,843.75
2017-08-21T08:14:48.020Z,883.13
2017-08-21T08:14:48.578Z,883.13
2017-08-21T08:14:49.177Z,883.13
2017-08-21T08:14:49.775Z,883.13
2017-08-21T08:14:50.383Z,883.13
2017-08-21T08:14:50.975Z,883.13
2017-08-21T08:14:51.579Z,883.13
2017-08-21T08:15:55.690Z,894.38
2017-08-21T08:15:56.276Z,894.38
2017-08-21T08:15:57.651Z,894.38
2017-08-21T08:15:58.125Z,894.38
2017-08-21T08:15:58.860Z,894.38
2017-08-21T08:15:59.327Z,894.38
2017-08-21T08:16:53.530Z,916.88
2017-08-21T08:16:54.124Z,916.88
2017-08-21T08:16:54.718Z,916.88
2017-08-21T08:16:55.337Z,916.88
2017-08-21T08:16:55.919Z,916.88
2017-08-21T08:16:56.521Z,916.88
2017-08-21T08:16:57.128Z,916.88
2017-08-21T08:17:52.199Z,945.00
2017-08-21T08:17:52.794Z,939.38
2017-08-21T08:17:53.407Z,939.38
2017-08-21T08:17:53.995Z,939.38
2017-08-21T08:17:54.603Z,939.38
2017-08-21T08:17:55.202Z,939.38
2017-08-21T08:19:01.217Z,945.00
2017-08-21T08:19:01.821Z,945.00
2017-08-21T08:19:02.415Z,945.00
2017-08-21T08:19:03.016Z,950.63
2017-08-21T08:19:03.616Z,945.00
2017-08-21T08:19:59.215Z,933.75
2017-08-21T08:19:59.779Z,939.38
2017-08-21T08:20:00.380Z,939.38
2017-08-21T08:20:00.976Z,933.75
2017-08-21T08:20:01.578Z,933.75
2017-08-21T08:20:02.176Z,933.75
2017-08-21T08:20:02.774Z,939.38
2017-08-21T08:20:56.738Z,933.75
2017-08-21T08:20:57.331Z,928.13
2017-08-21T08:20:57.925Z,928.13
2017-08-21T08:20:58.528Z,928.13
2017-08-21T08:20:59.124Z,928.13
2017-08-21T08:20:59.724Z,928.13
2017-08-21T08:21:00.327Z,933.75
2017-08-21T08:21:55.304Z,911.25
2017-08-21T08:21:55.903Z,905.63
2017-08-21T08:21:56.498Z,905.63
2017-08-21T08:21:57.101Z,905.63
2017-08-21T08:21:57.703Z,905.63
2017-08-21T08:21:58.301Z,905.63
2017-08-21T08:22:56.337Z,860.63
2017-08-21T08:22:56.929Z,860.63
2017-08-21T08:22:57.525Z,866.25
2017-08-21T08:23:52.346Z,860.63
2017-08-21T08:23:52.944Z,860.63
2017-08-21T08:23:53.541Z,860.63
2017-08-21T08:23:54.145Z,860.63
2017-08-21T08:23:54.743Z,860.63
2017-08-21T08:23:55.343Z,860.63
2017-08-21T08:23:55.965Z,860.63
2017-08-21T08:24:49.490Z,843.75
2017-08-21T08:24:50.082Z,843.75
2017-08-21T08:24:50.682Z,843.75
2017-08-21T08:24:51.283Z,843.75
2017-08-21T08:24:51.881Z,843.75
2017-08-21T08:24:52.486Z,843.75
2017-08-21T08:24:53.086Z,843.75
2017-08-21T08:24:53.685Z,843.75
2017-08-21T08:26:03.243Z,832.50
2017-08-21T08:26:03.813Z,832.50
2017-08-21T08:26:04.414Z,832.50
2017-08-21T08:26:05.006Z,832.50
2017-08-21T08:26:05.610Z,838.13
2017-08-21T08:26:06.217Z,838.13
2017-08-21T08:26:06.814Z,838.13
2017-08-21T08:26:07.410Z,838.13
2017-08-21T08:26:08.014Z,838.13
2017-08-21T08:26:08.606Z,838.13
2017-08-21T08:26:09.213Z,843.75
2017-08-21T08:26:09.809Z,838.13
2017-08-21T08:26:10.412Z,838.13
2017-08-21T08:26:11.013Z,843.75
2017-08-21T08:26:11.609Z,843.75
2017-08-21T08:28:02.720Z,1023.75
2017-08-21T08:28:03.318Z,1029.38
2017-08-21T08:28:03.913Z,1023.75
2017-08-21T08:28:04.510Z,1023.75
2017-08-21T08:28:05.697Z,1035.00
2017-08-21T08:28:06.209Z,1029.38
2017-08-21T08:28:06.809Z,1029.38
2017-08-21T08:28:07.411Z,1029.38
2017-08-21T08:28:08.007Z,1035.00
2017-08-21T08:28:08.609Z,1035.00
2017-08-21T08:28:09.213Z,1035.00
2017-08-21T08:28:09.806Z,1035.00
2017-08-21T08:29:17.774Z,1046.25
2017-08-21T08:29:18.370Z,1046.25
2017-08-21T08:29:18.972Z,1051.88
2017-08-21T08:29:19.574Z,1046.25
2017-08-21T08:29:20.172Z,1046.25
2017-08-21T08:29:20.774Z,1046.25
2017-08-21T08:29:21.377Z,1046.25
2017-08-21T08:30:17.375Z,1012.50
2017-08-21T08:30:17.970Z,1006.88
2017-08-21T08:30:18.569Z,1012.50
2017-08-21T08:30:19.169Z,1001.25
2017-08-21T08:30:19.769Z,1001.25
2017-08-21T08:30:20.371Z,1001.25
2017-08-21T08:31:15.367Z,877.50
2017-08-21T08:31:15.927Z,877.50
2017-08-21T08:31:16.532Z,877.50
2017-08-21T08:31:17.129Z,877.50
2017-08-21T08:31:17.735Z,877.50
2017-08-21T08:31:18.328Z,877.50
2017-08-21T08:31:18.928Z,871.88